createdAt,value
2022-09-12T00:02:26.660Z,99.90
2022-09-12T00:04:53.585Z,99.90
2022-09-12T00:07:20.563Z,99.90
2022-09-12T00:09:47.612Z,99.90
2022-09-12T00:12:14.529Z,99.90
2022-09-12T00:14:41.538Z,99.90
2022-09-12T00:17:08.470Z,99.90
2022-09-12T00:19:35.604Z,99.90
2022-09-12T00:22:02.581Z,99.90
2022-09-12T00:24:29.499Z,99.90
2022-09-12T00:26:56.509Z,99.90
2022-09-12T00:29:23.467Z,99.90
2022-09-12T00:31:50.576Z,99.90
2022-09-12T00:34:17.607Z,99.90
2022-09-12T00:36:44.527Z,99.90
2022-09-12T00:39:16.801Z,99.90
2022-09-12T00:41:45.827Z,99.90
2022-09-12T00:44:12.697Z,99.90
2022-09-12T00:47:04.593Z,99.90
2022-09-12T00:49:37.897Z,99.90
2022-09-12T00:52:04.780Z,99.90
2022-09-12T00:54:35.728Z,99.90
2022-09-12T00:57:05.614Z,99.90
2022-09-12T00:59:44.700Z,99.90
2022-09-12T01:02:11.791Z,99.90
2022-09-12T01:04:41.080Z,99.90
2022-09-12T01:07:08.842Z,99.90
2022-09-12T01:09:37.810Z,99.90
2022-09-12T01:12:05.301Z,99.90
2022-09-12T01:14:32.463Z,99.90
2022-09-12T01:16:59.434Z,99.90
2022-09-12T01:19:53.285Z,99.90
2022-09-12T01:22:36.556Z,99.90
2022-09-12T01:25:31.811Z,99.90
2022-09-12T01:28:31.501Z,99.90
2022-09-12T01:31:10.377Z,99.90
2022-09-12T01:33:55.437Z,99.90
2022-09-12T01:36:29.555Z,99.90
2022-09-12T01:39:01.601Z,99.90
2022-09-12T01:41:41.765Z,99.90
2022-09-12T01:44:37.608Z,99.90
2022-09-12T01:47:16.421Z,99.90
2022-09-12T01:49:59.461Z,99.90
2022-09-12T01:52:32.942Z,99.90
2022-09-12T01:55:13.125Z,99.90
2022-09-12T01:57:58.239Z,99.90
2022-09-12T02:00:25.815Z,99.90
2022-09-12T02:03:02.620Z,99.90
2022-09-12T02:05:58.001Z,99.90
2022-09-12T02:08:33.268Z,99.90
2022-09-12T02:11:05.801Z,99.90
2022-09-12T02:13:39.235Z,99.90
2022-09-12T02:16:12.451Z,99.90
2022-09-12T02:18:44.392Z,99.90
2022-09-12T02:21:11.969Z,99.90
2022-09-12T02:23:43.547Z,99.90
2022-09-12T02:26:20.133Z,99.90
2022-09-12T02:28:48.170Z,99.90
2022-09-12T02:31:27.415Z,99.90
2022-09-12T02:34:09.846Z,99.90
2022-09-12T02:36:52.060Z,99.90
2022-09-12T02:39:21.090Z,99.90
2022-09-12T02:41:51.696Z,99.90
2022-09-12T02:44:19.084Z,99.90
2022-09-12T02:46:51.625Z,99.90
2022-09-12T02:49:19.280Z,99.90
2022-09-12T02:51:47.603Z,99.90
2022-09-12T02:54:17.130Z,99.90
2022-09-12T02:56:45.446Z,99.90
2022-09-12T02:59:16.956Z,99.90
2022-09-12T03:01:47.029Z,99.90
2022-09-12T03:04:35.584Z,99.90
2022-09-12T03:07:15.049Z,99.90
2022-09-12T03:10:02.981Z,99.90
2022-09-12T03:12:59.420Z,99.90
2022-09-12T03:15:41.546Z,99.90
2022-09-12T03:18:20.914Z,99.90
2022-09-12T03:20:55.346Z,99.90
2022-09-12T03:23:29.102Z,99.90
2022-09-12T03:26:21.410Z,99.90
2022-09-12T03:28:50.264Z,99.90
2022-09-12T03:31:19.706Z,99.90
2022-09-12T03:33:46.712Z,99.90
2022-09-12T03:36:19.186Z,99.90
2022-09-12T03:38:46.229Z,99.90
2022-09-12T03:41:13.344Z,99.90
2022-09-12T03:43:40.246Z,99.90
2022-09-12T03:46:07.607Z,99.90
2022-09-12T03:48:34.524Z,99.90
2022-09-12T03:51:07.433Z,99.90
2022-09-12T03:53:34.624Z,99.90
2022-09-12T03:56:09.861Z,99.90
2022-09-12T03:58:37.525Z,99.90
2022-09-12T04:01:12.864Z,99.90
2022-09-12T04:03:40.939Z,99.90
2022-09-12T04:06:09.982Z,99.90
2022-09-12T04:08:37.568Z,99.90
2022-09-12T04:11:06.814Z,99.90
2022-09-12T04:13:35.252Z,99.90
2022-09-12T04:16:03.180Z,99.90
2022-09-12T04:18:30.186Z,99.90
2022-09-12T04:20:57.575Z,99.90
2022-09-12T04:23:24.939Z,99.90
2022-09-12T04:26:00.464Z,99.90
2022-09-12T04:28:32.480Z,99.90
2022-09-12T04:31:08.064Z,99.90
2022-09-12T04:33:35.929Z,99.90
2022-09-12T04:36:07.610Z,99.90
2022-09-12T04:38:35.828Z,99.90
2022-09-12T04:41:21.059Z,99.90
2022-09-12T04:43:51.921Z,99.90
2022-09-12T04:46:22.030Z,99.90
2022-09-12T04:48:52.205Z,99.90
2022-09-12T04:51:27.721Z,99.90
2022-09-12T04:54:16.332Z,99.90
2022-09-12T04:56:46.193Z,99.90
2022-09-12T04:59:14.404Z,99.90
2022-09-12T05:01:42.447Z,99.90
2022-09-12T05:04:15.429Z,99.90
2022-09-12T05:06:43.579Z,99.90
2022-09-12T05:09:14.361Z,99.90
2022-09-12T05:14:32.409Z,99.90
2022-09-12T05:17:01.358Z,99.90
2022-09-12T05:19:30.266Z,99.90
2022-09-12T05:21:57.713Z,99.90
2022-09-12T05:24:25.133Z,99.90
2022-09-12T05:26:52.189Z,99.90
2022-09-12T05:29:19.884Z,99.90
2022-09-12T05:31:52.283Z,99.90
2022-09-12T05:34:20.353Z,99.90
2022-09-12T05:36:47.478Z,99.90
2022-09-12T05:39:14.457Z,99.90
2022-09-12T05:41:41.329Z,99.90
2022-09-12T05:44:12.652Z,99.90
2022-09-12T05:46:41.367Z,99.90
2022-09-12T05:49:10.738Z,99.90
2022-09-12T05:51:41.418Z,99.90
2022-09-12T05:54:10.951Z,99.90
2022-09-12T05:56:40.273Z,99.90
2022-09-12T05:59:19.159Z,99.90
2022-09-12T06:01:46.662Z,99.90
2022-09-12T06:04:13.949Z,99.90
2022-09-12T06:06:45.210Z,99.90
2022-09-12T06:09:17.257Z,99.90
2022-09-12T06:11:45.528Z,99.90
2022-09-12T06:14:14.757Z,99.90
2022-09-12T06:16:41.941Z,99.90
2022-09-12T06:19:15.497Z,99.90
2022-09-12T06:21:42.445Z,99.90
2022-09-12T06:24:09.468Z,99.90
2022-09-12T06:26:36.916Z,99.90
2022-09-12T06:29:04.217Z,99.90
2022-09-12T06:31:33.756Z,99.90
2022-09-12T06:34:06.299Z,99.90
2022-09-12T06:36:38.856Z,99.90
2022-09-12T06:39:10.896Z,99.90
2022-09-12T06:41:42.964Z,99.90
2022-09-12T06:44:29.751Z,99.90
2022-09-12T06:46:58.277Z,99.90
2022-09-12T06:49:25.220Z,99.90
2022-09-12T06:51:52.156Z,99.90
2022-09-12T06:54:19.955Z,99.90
2022-09-12T06:56:46.992Z,99.90
2022-09-12T06:59:14.227Z,99.90
2022-09-12T07:01:41.743Z,99.90
2022-09-12T07:04:09.094Z,99.90
2022-09-12T07:06:38.415Z,99.90
2022-09-12T07:09:07.881Z,99.90
2022-09-12T07:11:37.969Z,99.90
2022-09-12T07:14:06.805Z,99.90
2022-09-12T07:16:36.607Z,99.90
2022-09-12T07:19:05.315Z,99.90
2022-09-12T07:21:32.904Z,99.90
2022-09-12T07:23:59.913Z,99.90
2022-09-12T07:26:29.320Z,99.90
2022-09-12T07:29:12.748Z,99.90
2022-09-12T07:31:45.226Z,99.90
2022-09-12T07:34:12.141Z,99.90
2022-09-12T07:36:39.236Z,99.90
2022-09-12T07:39:06.368Z,99.90
2022-09-12T07:41:34.114Z,99.90
2022-09-12T07:44:02.633Z,99.90
2022-09-12T07:46:31.201Z,99.90
2022-09-12T07:49:00.194Z,99.90
2022-09-12T07:51:28.892Z,99.90
2022-09-12T07:53:56.562Z,99.90
2022-09-12T07:56:29.641Z,99.90
2022-09-12T07:58:57.831Z,99.90
2022-09-12T08:01:24.804Z,99.90
2022-09-12T08:03:58.031Z,99.90
2022-09-12T08:06:26.929Z,99.90
2022-09-12T08:08:58.439Z,99.90
2022-09-12T08:11:28.040Z,99.90
2022-09-12T08:13:57.174Z,99.90
2022-09-12T08:16:27.655Z,99.90
2022-09-12T08:18:54.600Z,99.90
2022-09-12T08:21:27.173Z,99.90
2022-09-12T08:23:56.326Z,99.90
2022-09-12T08:26:23.492Z,99.90
2022-09-12T08:28:51.495Z,99.90
2022-09-12T08:31:21.136Z,99.90
2022-09-12T08:33:48.466Z,99.90
2022-09-12T08:36:21.294Z,99.90
2022-09-12T08:38:50.569Z,99.90
2022-09-12T08:41:24.947Z,99.90
2022-09-12T08:44:03.867Z,99.90
2022-09-12T08:46:51.709Z,99.90
2022-09-12T08:49:35.038Z,99.90
2022-09-12T08:52:44.305Z,99.90
2022-09-12T08:55:36.624Z,99.90
2022-09-12T08:58:25.585Z,99.90
2022-09-12T09:01:24.100Z,99.90
2022-09-12T09:04:28.106Z,99.90
2022-09-12T09:06:59.286Z,99.90
2022-09-12T09:09:44.649Z,99.90
2022-09-12T09:12:25.974Z,99.90
2022-09-12T09:15:14.712Z,99.90
2022-09-12T09:17:44.935Z,99.90
2022-09-12T09:20:24.073Z,99.90
2022-09-12T09:22:53.524Z,99.90
2022-09-12T09:25:43.845Z,99.90
2022-09-12T09:28:25.565Z,99.90
2022-09-12T09:30:52.974Z,99.90
2022-09-12T09:33:26.620Z,99.90
2022-09-12T09:36:18.590Z,99.90
2022-09-12T09:39:05.957Z,99.90
2022-09-12T09:41:48.143Z,99.90
2022-09-12T09:44:15.309Z,99.90
2022-09-12T09:46:42.332Z,99.90
2022-09-12T09:49:12.740Z,99.90
2022-09-12T09:51:41.418Z,99.90
2022-09-12T09:54:17.694Z,99.90
2022-09-12T09:56:45.031Z,99.90
2022-09-12T09:59:26.260Z,99.90
2022-09-12T10:01:57.594Z,99.90
2022-09-12T10:04:27.940Z,99.90
2022-09-12T10:07:00.630Z,99.90
2022-09-12T10:09:36.173Z,99.90
2022-09-12T10:12:22.124Z,99.90
2022-09-12T10:14:58.927Z,99.90
2022-09-12T10:17:34.311Z,99.90
2022-09-12T10:20:21.655Z,99.90
2022-09-12T10:22:49.541Z,99.90
2022-09-12T10:25:18.590Z,99.90
2022-09-12T10:27:57.479Z,99.90
2022-09-12T10:30:28.732Z,99.90
2022-09-12T10:33:07.292Z,99.90
2022-09-12T10:35:45.681Z,99.90
2022-09-12T10:38:26.588Z,99.90
2022-09-12T10:41:06.514Z,99.90
2022-09-12T10:43:33.525Z,99.90
2022-09-12T10:46:16.020Z,99.90
2022-09-12T10:48:45.318Z,99.90
2022-09-12T10:51:28.111Z,99.90
2022-09-12T10:54:02.007Z,99.90
2022-09-12T10:56:51.301Z,99.90
2022-09-12T10:59:20.260Z,99.90
2022-09-12T11:01:47.448Z,99.90
2022-09-12T11:04:17.342Z,99.90
2022-09-12T11:07:03.579Z,99.90
2022-09-12T11:09:54.624Z,99.90
2022-09-12T11:12:59.222Z,99.90
2022-09-12T11:16:04.158Z,99.90
2022-09-12T11:19:03.915Z,99.90
2022-09-12T11:21:46.815Z,99.90
2022-09-12T11:24:25.205Z,99.90
2022-09-12T11:27:27.702Z,99.90
2022-09-12T11:30:13.606Z,99.90
2022-09-12T11:33:08.262Z,99.90
2022-09-12T11:35:44.137Z,99.90
2022-09-12T11:38:45.285Z,99.90
2022-09-12T11:41:26.274Z,99.90
2022-09-12T11:44:02.618Z,99.90
2022-09-12T11:46:33.674Z,99.90
2022-09-12T11:49:35.785Z,99.90
2022-09-12T11:52:16.731Z,99.90
2022-09-12T11:55:08.526Z,99.90
2022-09-12T11:57:54.353Z,99.90
2022-09-12T12:00:22.613Z,99.90
2022-09-12T12:03:20.683Z,99.90
2022-09-12T12:05:55.359Z,99.90
2022-09-12T12:08:24.580Z,99.90
2022-09-12T12:11:00.861Z,99.90
2022-09-12T12:13:46.764Z,99.90
2022-09-12T12:16:27.261Z,99.90
2022-09-12T12:19:04.130Z,99.90
2022-09-12T12:21:40.192Z,99.90
2022-09-12T12:24:10.561Z,99.90
2022-09-12T12:26:40.624Z,99.90
2022-09-12T12:29:18.560Z,99.90
2022-09-12T12:32:03.634Z,99.90
2022-09-12T12:34:42.215Z,99.90
2022-09-12T12:37:21.628Z,99.90
2022-09-12T12:39:49.835Z,99.90
2022-09-12T12:42:35.226Z,99.90
2022-09-12T12:45:23.723Z,99.90
2022-09-12T12:47:57.367Z,99.90
2022-09-12T12:50:31.158Z,99.90
2022-09-12T12:53:02.891Z,99.90
2022-09-12T12:55:43.241Z,99.90
2022-09-12T12:58:36.320Z,99.90
2022-09-12T13:01:10.796Z,99.90
2022-09-12T13:03:41.339Z,99.90
2022-09-12T13:06:19.724Z,99.90
2022-09-12T13:09:00.107Z,99.90
2022-09-12T13:11:36.844Z,99.90
2022-09-12T13:14:05.078Z,99.90
2022-09-12T13:16:53.822Z,99.90
2022-09-12T13:19:29.247Z,99.90
2022-09-12T13:22:00.991Z,99.90
2022-09-12T13:24:28.406Z,99.70
2022-09-12T13:26:57.561Z,99.50
2022-09-12T13:29:27.367Z,99.30
2022-09-12T13:32:02.691Z,99.60
2022-09-12T13:34:44.886Z,99.90
2022-09-12T13:37:39.200Z,99.00
2022-09-12T13:40:07.440Z,99.90
2022-09-12T13:42:52.821Z,99.90
2022-09-12T13:45:25.059Z,98.60
2022-09-12T13:47:59.036Z,97.20
2022-09-12T13:50:42.818Z,96.50
2022-09-12T13:53:16.921Z,98.70
2022-09-12T13:55:55.254Z,97.40
2022-09-12T13:58:25.589Z,98.60
2022-09-12T14:01:12.319Z,96.40
2022-09-12T14:04:11.399Z,97.20
2022-09-12T14:06:50.124Z,96.40
2022-09-12T14:09:25.266Z,97.30
2022-09-12T14:11:53.070Z,96.80
2022-09-12T14:14:33.881Z,96.70
2022-09-12T14:17:00.947Z,97.60
2022-09-12T14:19:29.126Z,95.30
2022-09-12T14:21:57.597Z,95.30
2022-09-12T14:24:24.806Z,99.90
2022-09-12T14:26:56.776Z,98.20
2022-09-12T14:29:25.215Z,95.90
2022-09-12T14:32:05.748Z,94.20
2022-09-12T14:34:32.767Z,94.20
2022-09-12T14:37:01.041Z,95.10
2022-09-12T14:39:32.999Z,96.60
2022-09-12T14:42:13.205Z,96.40
2022-09-12T14:44:41.323Z,95.80
2022-09-12T14:47:21.431Z,97.70
2022-09-12T14:49:50.058Z,95.80
2022-09-12T14:52:33.329Z,95.20
2022-09-12T14:55:23.895Z,95.40
2022-09-12T14:58:22.822Z,95.10
2022-09-12T15:01:03.775Z,94.80
2022-09-12T15:03:34.402Z,95.30
2022-09-12T15:06:03.763Z,94.70
2022-09-12T15:08:32.207Z,94.00
2022-09-12T15:11:00.226Z,95.90
2022-09-12T15:13:30.187Z,94.40
2022-09-12T15:15:58.984Z,94.60
2022-09-12T15:18:28.708Z,93.00
2022-09-12T15:21:05.387Z,94.00
2022-09-12T15:23:32.854Z,94.30
2022-09-12T15:26:00.409Z,94.00
2022-09-12T15:28:27.923Z,95.90
2022-09-12T15:30:57.002Z,95.50
2022-09-12T15:33:25.772Z,94.60
2022-09-12T15:35:53.626Z,94.80
2022-09-12T15:38:25.777Z,95.00
2022-09-12T15:40:54.451Z,94.30
2022-09-12T15:43:26.260Z,93.70
2022-09-12T15:45:53.428Z,93.50
2022-09-12T15:48:21.072Z,93.00
2022-09-12T15:50:48.442Z,93.50
2022-09-12T15:53:16.691Z,95.40
2022-09-12T15:55:44.181Z,95.80
2022-09-12T15:58:11.337Z,93.00
2022-09-12T16:00:38.788Z,96.20
2022-09-12T16:03:06.397Z,94.10
2022-09-12T16:05:36.711Z,95.20
2022-09-12T16:08:03.636Z,94.60
2022-09-12T16:10:31.321Z,97.30
2022-09-12T16:12:59.742Z,95.80
2022-09-12T16:15:26.776Z,95.80
2022-09-12T16:17:56.494Z,94.20
2022-09-12T16:20:24.383Z,94.10
2022-09-12T16:22:51.537Z,94.00
2022-09-12T16:25:18.685Z,94.20
2022-09-12T16:27:45.818Z,97.90
2022-09-12T16:30:13.812Z,96.10
2022-09-12T16:32:41.024Z,98.40
2022-09-12T16:35:08.873Z,98.00
2022-09-12T16:37:36.171Z,98.10
2022-09-12T16:40:04.742Z,97.80
2022-09-12T16:42:31.807Z,96.20
2022-09-12T16:44:58.837Z,96.90
2022-09-12T16:47:28.094Z,98.30
2022-09-12T16:49:55.077Z,97.90
2022-09-12T16:52:21.942Z,99.50
2022-09-12T16:54:48.941Z,98.70
2022-09-12T16:57:16.268Z,98.40
2022-09-12T16:59:43.311Z,99.10
2022-09-12T17:02:14.729Z,99.00
2022-09-12T17:04:42.151Z,99.50
2022-09-12T17:07:09.279Z,98.50
2022-09-12T17:09:36.301Z,99.90
2022-09-12T17:12:03.453Z,99.90
2022-09-12T17:14:30.625Z,99.90
2022-09-12T17:16:57.766Z,99.90
2022-09-12T17:19:35.281Z,99.90
2022-09-12T17:22:02.309Z,99.90
2022-09-12T17:24:29.853Z,99.90
2022-09-12T17:26:57.172Z,99.90
2022-09-12T17:29:24.183Z,99.90
2022-09-12T17:31:51.501Z,99.90
2022-09-12T17:34:18.468Z,99.90
2022-09-12T17:36:45.818Z,99.90
2022-09-12T17:39:13.791Z,99.90
2022-09-12T17:41:42.729Z,99.90
2022-09-12T17:44:15.103Z,99.90
2022-09-12T17:46:42.975Z,99.90
2022-09-12T17:49:15.563Z,99.90
2022-09-12T17:51:43.594Z,99.90
2022-09-12T17:54:16.146Z,99.90
2022-09-12T17:56:45.437Z,99.90
2022-09-12T17:59:16.616Z,99.90
2022-09-12T18:02:02.626Z,99.90
2022-09-12T18:04:29.810Z,99.90
2022-09-12T18:06:57.646Z,99.90
2022-09-12T18:09:27.940Z,99.90
2022-09-12T18:11:55.441Z,99.90
2022-09-12T18:14:23.517Z,99.90
2022-09-12T18:16:50.832Z,99.90
2022-09-12T18:19:18.304Z,99.90
2022-09-12T18:21:45.500Z,99.90
2022-09-12T18:24:12.572Z,99.90
2022-09-12T18:26:39.712Z,99.90
2022-09-12T18:29:07.254Z,99.90
2022-09-12T18:31:34.288Z,99.90
2022-09-12T18:34:02.854Z,99.90
2022-09-12T18:36:30.815Z,99.90
2022-09-12T18:38:59.680Z,99.90
2022-09-12T18:41:28.879Z,99.90
2022-09-12T18:43:57.643Z,99.90
2022-09-12T18:46:26.122Z,99.90
2022-09-12T18:48:55.515Z,99.90
2022-09-12T18:51:25.678Z,99.90
2022-09-12T18:53:54.843Z,99.90
2022-09-12T18:56:23.745Z,99.90
2022-09-12T18:58:55.187Z,99.90
2022-09-12T19:01:24.869Z,99.90
2022-09-12T19:03:53.187Z,99.90
2022-09-12T19:06:22.898Z,99.90
2022-09-12T19:08:51.495Z,99.90
2022-09-12T19:11:20.075Z,99.90
2022-09-12T19:13:49.055Z,99.90
2022-09-12T19:16:21.816Z,99.90
2022-09-12T19:18:49.869Z,99.90
2022-09-12T19:21:25.046Z,99.90
2022-09-12T19:23:53.718Z,99.90
2022-09-12T19:26:21.717Z,99.90
2022-09-12T19:28:49.443Z,99.90
2022-09-12T19:31:21.758Z,99.90
2022-09-12T19:33:49.752Z,99.90
2022-09-12T19:36:43.365Z,99.90
2022-09-12T19:39:07.498Z,99.90
2022-09-12T19:41:35.140Z,99.90
2022-09-12T19:44:02.341Z,99.90
2022-09-12T19:46:29.261Z,99.90
2022-09-12T19:48:56.407Z,99.90
2022-09-12T19:51:26.391Z,99.90
2022-09-12T19:53:53.712Z,99.90
2022-09-12T19:56:20.810Z,99.90
2022-09-12T19:58:53.506Z,99.90
2022-09-12T20:01:25.124Z,99.90
2022-09-12T20:03:55.075Z,99.90
2022-09-12T20:06:22.591Z,99.90
2022-09-12T20:08:49.786Z,99.90
2022-09-12T20:11:18.337Z,99.90
2022-09-12T20:13:46.158Z,99.90
2022-09-12T20:16:33.749Z,99.90
2022-09-12T20:19:07.151Z,99.90
2022-09-12T20:21:36.006Z,99.90
2022-09-12T20:24:10.219Z,99.90
2022-09-12T20:26:37.320Z,99.90
2022-09-12T20:29:05.481Z,99.90
2022-09-12T20:31:33.334Z,99.90
2022-09-12T20:34:00.495Z,99.90
2022-09-12T20:36:27.800Z,99.90
2022-09-12T20:38:59.863Z,99.90
2022-09-12T20:41:29.342Z,99.90
2022-09-12T20:43:56.959Z,99.90
2022-09-12T20:46:28.218Z,99.90
2022-09-12T20:48:55.854Z,99.90
2022-09-12T20:51:24.522Z,99.90
2022-09-12T20:53:55.122Z,99.90
2022-09-12T20:56:28.511Z,99.90
2022-09-12T20:58:55.828Z,99.90
2022-09-12T21:01:22.961Z,99.90
2022-09-12T21:03:50.423Z,99.90
2022-09-12T21:06:17.727Z,99.90
2022-09-12T21:08:46.268Z,99.90
2022-09-12T21:11:14.176Z,99.90
2022-09-12T21:13:41.135Z,99.90
2022-09-12T21:16:13.727Z,99.90
2022-09-12T21:18:41.417Z,99.90
2022-09-12T21:21:10.338Z,99.90
2022-09-12T21:23:37.514Z,99.90
2022-09-12T21:26:04.462Z,99.90
2022-09-12T21:28:31.298Z,99.90
2022-09-12T21:30:58.325Z,99.90
2022-09-12T21:33:25.763Z,99.90
2022-09-12T21:35:52.708Z,99.90
2022-09-12T21:38:20.589Z,99.90
2022-09-12T21:40:47.958Z,99.90
2022-09-12T21:43:15.313Z,99.90
2022-09-12T21:45:42.235Z,99.90
2022-09-12T21:48:09.237Z,99.90
2022-09-12T21:50:36.133Z,99.90
2022-09-12T21:53:03.080Z,99.90
2022-09-12T21:55:30.193Z,99.90
2022-09-12T21:57:57.434Z,99.90
2022-09-12T22:00:24.423Z,99.90
2022-09-12T22:02:51.318Z,99.90
2022-09-12T22:05:21.223Z,99.90
2022-09-12T22:07:48.201Z,99.90
2022-09-12T22:10:15.236Z,99.90
2022-09-12T22:12:46.026Z,99.90
2022-09-12T22:15:39.055Z,99.90
2022-09-12T22:18:00.976Z,99.90
2022-09-12T22:20:27.937Z,99.90
2022-09-12T22:23:13.453Z,99.90
2022-09-12T22:25:40.700Z,99.90
2022-09-12T22:28:07.497Z,99.90
2022-09-12T22:30:34.467Z,99.90
2022-09-12T22:33:01.393Z,99.90
2022-09-12T22:35:28.434Z,99.90
2022-09-12T22:37:55.380Z,99.90
2022-09-12T22:40:22.489Z,99.90
2022-09-12T22:42:54.991Z,99.90
2022-09-12T22:45:22.104Z,99.90
2022-09-12T22:47:48.989Z,99.90
2022-09-12T22:50:16.012Z,99.90
2022-09-12T22:52:42.893Z,99.90
2022-09-12T22:55:09.927Z,99.90
2022-09-12T22:57:37.706Z,99.90
2022-09-12T23:00:08.888Z,99.90
2022-09-12T23:02:35.978Z,99.90
2022-09-12T23:05:03.385Z,99.90
2022-09-12T23:07:30.348Z,99.90
2022-09-12T23:09:57.241Z,99.90
2022-09-12T23:12:24.195Z,99.90
2022-09-12T23:14:51.148Z,99.90
2022-09-12T23:17:18.141Z,99.90
2022-09-12T23:19:45.263Z,99.90
2022-09-12T23:22:12.192Z,99.90
2022-09-12T23:24:39.158Z,99.90
2022-09-12T23:27:06.203Z,99.90
2022-09-12T23:29:35.222Z,99.90
2022-09-12T23:32:06.664Z,99.90
2022-09-12T23:34:33.906Z,99.90
2022-09-12T23:37:00.706Z,99.90
2022-09-12T23:39:27.872Z,99.90
2022-09-12T23:41:54.989Z,99.90
2022-09-12T23:44:21.865Z,99.90
2022-09-12T23:46:48.750Z,99.90
2022-09-12T23:49:15.699Z,99.90
2022-09-12T23:51:42.612Z,99.90
2022-09-12T23:54:09.501Z,99.90
2022-09-12T23:56:36.423Z,99.90
2022-09-12T23:59:03.403Z,99.90
